sensor_id;sensor_type;location;lat;lon;timestamp;P1;durP1;ratioP1;P2;durP2;ratioP2
67819;SDS011;54618;52.018;5.576;2023-02-02T00:01:45;4.60;;;1.13;;
67819;SDS011;54618;52.018;5.576;2023-02-02T00:04:17;5.85;;;1.60;;
67819;SDS011;54618;52.018;5.576;2023-02-02T00:07:01;4.95;;;1.13;;
67819;SDS011;54618;52.018;5.576;2023-02-02T00:09:29;4.80;;;1.13;;
67819;SDS011;54618;52.018;5.576;2023-02-02T00:11:56;5.15;;;1.35;;
67819;SDS011;54618;52.018;5.576;2023-02-02T00:14:22;3.60;;;1.40;;
67819;SDS011;54618;52.018;5.576;2023-02-02T00:16:48;5.47;;;1.20;;
67819;SDS011;54618;52.018;5.576;2023-02-02T00:19:24;5.05;;;1.05;;
67819;SDS011;54618;52.018;5.576;2023-02-02T00:21:52;3.90;;;1.35;;
67819;SDS011;54618;52.018;5.576;2023-02-02T00:24:18;3.78;;;1.05;;
67819;SDS011;54618;52.018;5.576;2023-02-02T00:26:46;4.53;;;1.23;;
67819;SDS011;54618;52.018;5.576;2023-02-02T00:29:17;5.28;;;1.20;;
67819;SDS011;54618;52.018;5.576;2023-02-02T00:31:45;5.00;;;1.30;;
67819;SDS011;54618;52.018;5.576;2023-02-02T00:34:11;2.53;;;1.00;;
67819;SDS011;54618;52.018;5.576;2023-02-02T00:36:38;4.05;;;1.35;;
67819;SDS011;54618;52.018;5.576;2023-02-02T00:39:03;5.15;;;1.27;;
67819;SDS011;54618;52.018;5.576;2023-02-02T00:41:29;5.70;;;1.50;;
67819;SDS011;54618;52.018;5.576;2023-02-02T00:43:54;5.65;;;1.30;;
67819;SDS011;54618;52.018;5.576;2023-02-02T00:46:39;3.90;;;1.10;;
67819;SDS011;54618;52.018;5.576;2023-02-02T00:49:05;6.13;;;1.50;;
67819;SDS011;54618;52.018;5.576;2023-02-02T00:51:31;5.78;;;1.10;;
67819;SDS011;54618;52.018;5.576;2023-02-02T00:53:57;3.17;;;0.98;;
67819;SDS011;54618;52.018;5.576;2023-02-02T00:56:22;5.13;;;1.23;;
67819;SDS011;54618;52.018;5.576;2023-02-02T00:58:49;4.45;;;1.10;;
67819;SDS011;54618;52.018;5.576;2023-02-02T01:01:15;3.20;;;1.10;;
67819;SDS011;54618;52.018;5.576;2023-02-02T01:03:41;5.78;;;1.30;;
67819;SDS011;54618;52.018;5.576;2023-02-02T01:06:08;5.85;;;1.58;;
67819;SDS011;54618;52.018;5.576;2023-02-02T01:08:33;4.03;;;1.10;;
67819;SDS011;54618;52.018;5.576;2023-02-02T01:10:59;5.13;;;1.10;;
67819;SDS011;54618;52.018;5.576;2023-02-02T01:13:24;4.40;;;1.30;;
67819;SDS011;54618;52.018;5.576;2023-02-02T01:15:56;5.25;;;1.20;;
67819;SDS011;54618;52.018;5.576;2023-02-02T01:18:23;4.72;;;1.15;;
67819;SDS011;54618;52.018;5.576;2023-02-02T01:20:55;4.95;;;1.30;;
67819;SDS011;54618;52.018;5.576;2023-02-02T01:23:25;5.43;;;1.30;;
67819;SDS011;54618;52.018;5.576;2023-02-02T01:25:58;2.72;;;0.90;;
67819;SDS011;54618;52.018;5.576;2023-02-02T01:28:25;4.18;;;1.00;;
67819;SDS011;54618;52.018;5.576;2023-02-02T01:30:51;3.20;;;1.02;;
67819;SDS011;54618;52.018;5.576;2023-02-02T01:33:18;4.30;;;1.30;;
67819;SDS011;54618;52.018;5.576;2023-02-02T01:35:54;3.92;;;1.23;;
67819;SDS011;54618;52.018;5.576;2023-02-02T01:38:20;5.75;;;1.40;;
67819;SDS011;54618;52.018;5.576;2023-02-02T01:40:51;4.32;;;1.10;;
67819;SDS011;54618;52.018;5.576;2023-02-02T01:45:49;4.35;;;1.42;;
67819;SDS011;54618;52.018;5.576;2023-02-02T01:48:15;5.68;;;1.30;;
67819;SDS011;54618;52.018;5.576;2023-02-02T01:50:44;3.05;;;1.02;;
67819;SDS011;54618;52.018;5.576;2023-02-02T01:53:13;6.65;;;1.42;;
67819;SDS011;54618;52.018;5.576;2023-02-02T01:55:39;4.05;;;1.20;;
67819;SDS011;54618;52.018;5.576;2023-02-02T01:58:10;4.00;;;1.13;;
67819;SDS011;54618;52.018;5.576;2023-02-02T02:00:49;4.95;;;1.15;;
67819;SDS011;54618;52.018;5.576;2023-02-02T02:03:17;3.90;;;1.25;;
67819;SDS011;54618;52.018;5.576;2023-02-02T02:05:55;4.13;;;1.20;;
67819;SDS011;54618;52.018;5.576;2023-02-02T02:08:28;4.53;;;1.13;;
67819;SDS011;54618;52.018;5.576;2023-02-02T02:10:58;4.80;;;1.23;;
67819;SDS011;54618;52.018;5.576;2023-02-02T02:13:25;5.07;;;1.15;;
67819;SDS011;54618;52.018;5.576;2023-02-02T02:21:52;5.82;;;1.30;;
67819;SDS011;54618;52.018;5.576;2023-02-02T02:33:03;2.60;;;0.82;;
67819;SDS011;54618;52.018;5.576;2023-02-02T02:38:03;4.78;;;1.20;;
67819;SDS011;54618;52.018;5.576;2023-02-02T02:40:39;5.13;;;1.15;;
67819;SDS011;54618;52.018;5.576;2023-02-02T02:43:53;4.25;;;1.17;;
67819;SDS011;54618;52.018;5.576;2023-02-02T02:46:16;4.65;;;1.10;;
67819;SDS011;54618;52.018;5.576;2023-02-02T02:48:45;4.72;;;1.20;;
67819;SDS011;54618;52.018;5.576;2023-02-02T02:51:57;3.22;;;1.05;;
67819;SDS011;54618;52.018;5.576;2023-02-02T02:54:03;3.58;;;1.00;;
67819;SDS011;54618;52.018;5.576;2023-02-02T02:56:32;3.05;;;0.95;;
67819;SDS011;54618;52.018;5.576;2023-02-02T03:07:34;2.92;;;0.77;;
67819;SDS011;54618;52.018;5.576;2023-02-02T03:10:05;2.42;;;0.80;;
67819;SDS011;54618;52.018;5.576;2023-02-02T03:12:42;3.13;;;1.15;;
67819;SDS011;54618;52.018;5.576;2023-02-02T03:15:12;2.40;;;0.77;;
67819;SDS011;54618;52.018;5.576;2023-02-02T03:17:38;3.70;;;0.88;;
67819;SDS011;54618;52.018;5.576;2023-02-02T03:20:05;3.90;;;0.98;;
67819;SDS011;54618;52.018;5.576;2023-02-02T03:22:31;2.47;;;0.70;;
67819;SDS011;54618;52.018;5.576;2023-02-02T03:24:56;2.80;;;0.82;;
67819;SDS011;54618;52.018;5.576;2023-02-02T03:27:23;3.85;;;1.00;;
67819;SDS011;54618;52.018;5.576;2023-02-02T03:29:49;3.55;;;0.90;;
67819;SDS011;54618;52.018;5.576;2023-02-02T03:32:15;2.50;;;0.90;;
67819;SDS011;54618;52.018;5.576;2023-02-02T03:34:41;3.05;;;0.88;;
67819;SDS011;54618;52.018;5.576;2023-02-02T03:37:07;3.05;;;0.80;;
67819;SDS011;54618;52.018;5.576;2023-02-02T03:39:32;3.78;;;0.85;;
67819;SDS011;54618;52.018;5.576;2023-02-02T03:41:58;3.33;;;0.90;;
67819;SDS011;54618;52.018;5.576;2023-02-02T03:44:23;3.15;;;0.90;;
67819;SDS011;54618;52.018;5.576;2023-02-02T03:46:51;3.20;;;1.00;;
67819;SDS011;54618;52.018;5.576;2023-02-02T03:49:18;4.30;;;1.10;;
67819;SDS011;54618;52.018;5.576;2023-02-02T03:51:44;2.70;;;0.90;;
67819;SDS011;54618;52.018;5.576;2023-02-02T03:54:09;5.03;;;1.00;;
67819;SDS011;54618;52.018;5.576;2023-02-02T03:56:35;3.22;;;0.90;;
67819;SDS011;54618;52.018;5.576;2023-02-02T03:59:01;2.70;;;0.80;;
67819;SDS011;54618;52.018;5.576;2023-02-02T04:01:27;3.70;;;0.90;;
67819;SDS011;54618;52.018;5.576;2023-02-02T04:03:54;5.57;;;0.93;;
67819;SDS011;54618;52.018;5.576;2023-02-02T04:06:20;2.95;;;0.90;;
67819;SDS011;54618;52.018;5.576;2023-02-02T04:08:46;2.90;;;0.80;;
67819;SDS011;54618;52.018;5.576;2023-02-02T04:11:12;2.55;;;0.90;;
67819;SDS011;54618;52.018;5.576;2023-02-02T04:13:37;2.05;;;0.82;;
67819;SDS011;54618;52.018;5.576;2023-02-02T04:16:04;5.95;;;1.20;;
67819;SDS011;54618;52.018;5.576;2023-02-02T04:18:30;2.42;;;0.80;;
67819;SDS011;54618;52.018;5.576;2023-02-02T04:20:56;2.10;;;0.73;;
67819;SDS011;54618;52.018;5.576;2023-02-02T04:23:22;3.55;;;0.90;;
67819;SDS011;54618;52.018;5.576;2023-02-02T04:25:48;2.70;;;0.80;;
67819;SDS011;54618;52.018;5.576;2023-02-02T04:28:14;3.50;;;0.80;;
67819;SDS011;54618;52.018;5.576;2023-02-02T04:30:40;2.88;;;0.85;;
67819;SDS011;54618;52.018;5.576;2023-02-02T04:33:05;4.85;;;1.23;;
67819;SDS011;54618;52.018;5.576;2023-02-02T04:35:31;4.40;;;0.90;;
67819;SDS011;54618;52.018;5.576;2023-02-02T04:37:56;3.75;;;0.80;;
67819;SDS011;54618;52.018;5.576;2023-02-02T04:40:22;2.60;;;0.90;;
67819;SDS011;54618;52.018;5.576;2023-02-02T04:42:47;3.13;;;0.90;;
67819;SDS011;54618;52.018;5.576;2023-02-02T04:45:14;3.80;;;0.93;;
67819;SDS011;54618;52.018;5.576;2023-02-02T04:47:39;2.95;;;0.90;;
67819;SDS011;54618;52.018;5.576;2023-02-02T04:50:05;3.05;;;0.90;;
67819;SDS011;54618;52.018;5.576;2023-02-02T04:52:31;3.60;;;0.95;;
67819;SDS011;54618;52.018;5.576;2023-02-02T04:54:57;3.33;;;0.82;;
67819;SDS011;54618;52.018;5.576;2023-02-02T04:57:23;3.67;;;1.00;;
67819;SDS011;54618;52.018;5.576;2023-02-02T04:59:49;3.65;;;0.90;;
67819;SDS011;54618;52.018;5.576;2023-02-02T05:02:15;3.35;;;1.05;;
67819;SDS011;54618;52.018;5.576;2023-02-02T05:04:40;3.03;;;1.00;;
67819;SDS011;54618;52.018;5.576;2023-02-02T05:07:06;5.00;;;1.10;;
67819;SDS011;54618;52.018;5.576;2023-02-02T05:09:32;3.03;;;0.80;;
67819;SDS011;54618;52.018;5.576;2023-02-02T05:11:57;3.75;;;1.08;;
67819;SDS011;54618;52.018;5.576;2023-02-02T05:14:23;4.25;;;1.00;;
67819;SDS011;54618;52.018;5.576;2023-02-02T05:16:48;3.17;;;0.85;;
67819;SDS011;54618;52.018;5.576;2023-02-02T05:19:14;5.18;;;1.20;;
67819;SDS011;54618;52.018;5.576;2023-02-02T05:21:41;4.07;;;1.10;;
67819;SDS011;54618;52.018;5.576;2023-02-02T05:24:08;4.53;;;0.98;;
67819;SDS011;54618;52.018;5.576;2023-02-02T05:26:34;4.15;;;0.82;;
67819;SDS011;54618;52.018;5.576;2023-02-02T05:29:00;3.97;;;0.88;;
67819;SDS011;54618;52.018;5.576;2023-02-02T05:31:26;2.78;;;1.02;;
67819;SDS011;54618;52.018;5.576;2023-02-02T05:33:52;2.53;;;0.80;;
67819;SDS011;54618;52.018;5.576;2023-02-02T05:36:18;2.78;;;0.90;;
67819;SDS011;54618;52.018;5.576;2023-02-02T05:38:43;3.92;;;1.02;;
67819;SDS011;54618;52.018;5.576;2023-02-02T05:41:09;3.58;;;1.08;;
67819;SDS011;54618;52.018;5.576;2023-02-02T05:43:34;4.47;;;1.13;;
67819;SDS011;54618;52.018;5.576;2023-02-02T05:46:00;2.78;;;0.98;;
67819;SDS011;54618;52.018;5.576;2023-02-02T05:48:26;3.53;;;0.77;;
67819;SDS011;54618;52.018;5.576;2023-02-02T05:50:56;2.88;;;0.85;;
67819;SDS011;54618;52.018;5.576;2023-02-02T05:53:27;2.53;;;0.82;;
67819;SDS011;54618;52.018;5.576;2023-02-02T05:55:54;3.67;;;1.00;;
67819;SDS011;54618;52.018;5.576;2023-02-02T05:58:19;2.08;;;0.80;;
67819;SDS011;54618;52.018;5.576;2023-02-02T06:00:45;3.72;;;0.95;;
67819;SDS011;54618;52.018;5.576;2023-02-02T06:03:10;3.63;;;1.10;;
67819;SDS011;54618;52.018;5.576;2023-02-02T06:05:36;1.88;;;0.80;;
67819;SDS011;54618;52.018;5.576;2023-02-02T06:08:02;4.55;;;1.00;;
67819;SDS011;54618;52.018;5.576;2023-02-02T06:10:28;2.67;;;0.90;;
67819;SDS011;54618;52.018;5.576;2023-02-02T06:12:55;4.15;;;1.00;;
67819;SDS011;54618;52.018;5.576;2023-02-02T06:15:21;2.25;;;0.70;;
67819;SDS011;54618;52.018;5.576;2023-02-02T06:17:47;4.22;;;1.20;;
67819;SDS011;54618;52.018;5.576;2023-02-02T06:20:12;4.10;;;1.10;;
67819;SDS011;54618;52.018;5.576;2023-02-02T06:22:38;5.07;;;1.00;;
67819;SDS011;54618;52.018;5.576;2023-02-02T06:25:03;2.80;;;0.93;;
67819;SDS011;54618;52.018;5.576;2023-02-02T06:27:31;4.40;;;0.90;;
67819;SDS011;54618;52.018;5.576;2023-02-02T06:29:57;2.75;;;1.00;;
67819;SDS011;54618;52.018;5.576;2023-02-02T06:32:23;3.03;;;1.00;;
67819;SDS011;54618;52.018;5.576;2023-02-02T06:34:48;3.05;;;0.82;;
67819;SDS011;54618;52.018;5.576;2023-02-02T06:37:14;3.22;;;0.90;;
67819;SDS011;54618;52.018;5.576;2023-02-02T06:39:40;2.55;;;0.75;;
67819;SDS011;54618;52.018;5.576;2023-02-02T06:42:05;2.50;;;0.85;;
67819;SDS011;54618;52.018;5.576;2023-02-02T06:44:31;3.85;;;0.73;;
67819;SDS011;54618;52.018;5.576;2023-02-02T06:46:56;2.33;;;0.85;;
67819;SDS011;54618;52.018;5.576;2023-02-02T06:49:22;2.85;;;0.88;;
67819;SDS011;54618;52.018;5.576;2023-02-02T06:51:47;2.47;;;0.75;;
67819;SDS011;54618;52.018;5.576;2023-02-02T06:54:13;2.47;;;0.77;;
67819;SDS011;54618;52.018;5.576;2023-02-02T06:56:38;1.88;;;0.73;;
67819;SDS011;54618;52.018;5.576;2023-02-02T06:59:04;3.05;;;0.88;;
67819;SDS011;54618;52.018;5.576;2023-02-02T07:01:30;3.10;;;0.80;;
67819;SDS011;54618;52.018;5.576;2023-02-02T07:03:56;2.00;;;0.70;;
67819;SDS011;54618;52.018;5.576;2023-02-02T07:06:25;1.70;;;0.80;;
67819;SDS011;54618;52.018;5.576;2023-02-02T07:11:18;1.83;;;0.80;;
67819;SDS011;54618;52.018;5.576;2023-02-02T07:13:44;1.85;;;0.80;;
67819;SDS011;54618;52.018;5.576;2023-02-02T07:16:11;3.85;;;0.88;;
67819;SDS011;54618;52.018;5.576;2023-02-02T07:18:37;2.80;;;0.73;;
67819;SDS011;54618;52.018;5.576;2023-02-02T07:21:04;3.13;;;0.85;;
67819;SDS011;54618;52.018;5.576;2023-02-02T07:23:30;2.35;;;0.93;;
67819;SDS011;54618;52.018;5.576;2023-02-02T07:26:04;2.45;;;0.80;;
67819;SDS011;54618;52.018;5.576;2023-02-02T07:28:31;3.08;;;0.73;;
67819;SDS011;54618;52.018;5.576;2023-02-02T07:30:57;3.05;;;0.95;;
67819;SDS011;54618;52.018;5.576;2023-02-02T07:33:23;2.30;;;0.65;;
67819;SDS011;54618;52.018;5.576;2023-02-02T07:35:48;1.50;;;0.57;;
67819;SDS011;54618;52.018;5.576;2023-02-02T07:38:14;2.72;;;0.90;;
67819;SDS011;54618;52.018;5.576;2023-02-02T07:40:40;2.08;;;0.80;;
67819;SDS011;54618;52.018;5.576;2023-02-02T07:43:05;2.75;;;0.80;;
67819;SDS011;54618;52.018;5.576;2023-02-02T07:45:31;3.20;;;0.98;;
67819;SDS011;54618;52.018;5.576;2023-02-02T07:47:59;2.72;;;0.80;;
67819;SDS011;54618;52.018;5.576;2023-02-02T07:50:26;2.08;;;0.90;;
67819;SDS011;54618;52.018;5.576;2023-02-02T07:52:53;2.85;;;0.80;;
67819;SDS011;54618;52.018;5.576;2023-02-02T07:55:19;3.15;;;0.90;;
67819;SDS011;54618;52.018;5.576;2023-02-02T07:57:45;2.03;;;0.70;;
67819;SDS011;54618;52.018;5.576;2023-02-02T08:00:11;3.03;;;1.20;;
67819;SDS011;54618;52.018;5.576;2023-02-02T08:02:36;3.22;;;0.80;;
67819;SDS011;54618;52.018;5.576;2023-02-02T08:05:02;3.22;;;0.70;;
67819;SDS011;54618;52.018;5.576;2023-02-02T08:07:30;2.70;;;0.80;;
67819;SDS011;54618;52.018;5.576;2023-02-02T08:09:58;3.15;;;0.98;;
67819;SDS011;54618;52.018;5.576;2023-02-02T08:12:24;3.17;;;1.00;;
67819;SDS011;54618;52.018;5.576;2023-02-02T08:14:50;2.40;;;0.85;;
67819;SDS011;54618;52.018;5.576;2023-02-02T08:17:16;3.58;;;0.98;;
67819;SDS011;54618;52.018;5.576;2023-02-02T08:19:41;2.08;;;0.75;;
67819;SDS011;54618;52.018;5.576;2023-02-02T08:22:07;2.60;;;0.88;;
67819;SDS011;54618;52.018;5.576;2023-02-02T08:24:32;2.10;;;0.70;;
67819;SDS011;54618;52.018;5.576;2023-02-02T08:26:58;3.10;;;0.77;;
67819;SDS011;54618;52.018;5.576;2023-02-02T08:29:24;2.92;;;0.80;;
67819;SDS011;54618;52.018;5.576;2023-02-02T08:31:49;2.65;;;0.70;;
67819;SDS011;54618;52.018;5.576;2023-02-02T08:34:15;2.25;;;0.60;;
67819;SDS011;54618;52.018;5.576;2023-02-02T08:36:40;2.45;;;0.80;;
67819;SDS011;54618;52.018;5.576;2023-02-02T08:39:07;1.55;;;0.70;;
67819;SDS011;54618;52.018;5.576;2023-02-02T08:41:36;3.23;;;0.97;;
67819;SDS011;54618;52.018;5.576;2023-02-02T08:44:06;2.13;;;0.82;;
67819;SDS011;54618;52.018;5.576;2023-02-02T08:46:32;2.63;;;0.85;;
67819;SDS011;54618;52.018;5.576;2023-02-02T08:48:58;2.50;;;0.80;;
67819;SDS011;54618;52.018;5.576;2023-02-02T08:51:23;3.42;;;0.73;;
67819;SDS011;54618;52.018;5.576;2023-02-02T08:53:49;4.78;;;1.00;;
67819;SDS011;54618;52.018;5.576;2023-02-02T08:56:16;2.00;;;0.88;;
67819;SDS011;54618;52.018;5.576;2023-02-02T08:58:46;3.13;;;0.98;;
67819;SDS011;54618;52.018;5.576;2023-02-02T09:01:19;2.33;;;0.82;;
67819;SDS011;54618;52.018;5.576;2023-02-02T09:03:47;2.92;;;1.00;;
67819;SDS011;54618;52.018;5.576;2023-02-02T09:06:16;3.03;;;0.90;;
67819;SDS011;54618;52.018;5.576;2023-02-02T09:08:43;2.65;;;0.70;;
67819;SDS011;54618;52.018;5.576;2023-02-02T09:11:10;3.13;;;0.68;;
67819;SDS011;54618;52.018;5.576;2023-02-02T09:13:38;2.80;;;0.77;;
67819;SDS011;54618;52.018;5.576;2023-02-02T09:16:05;2.85;;;0.82;;
67819;SDS011;54618;52.018;5.576;2023-02-02T09:18:32;2.50;;;0.80;;
67819;SDS011;54618;52.018;5.576;2023-02-02T09:20:59;2.50;;;0.70;;
67819;SDS011;54618;52.018;5.576;2023-02-02T09:23:28;2.50;;;0.80;;
67819;SDS011;54618;52.018;5.576;2023-02-02T09:25:54;1.85;;;0.70;;
67819;SDS011;54618;52.018;5.576;2023-02-02T09:28:20;1.83;;;0.70;;
67819;SDS011;54618;52.018;5.576;2023-02-02T09:30:45;2.15;;;0.73;;
67819;SDS011;54618;52.018;5.576;2023-02-02T09:33:10;2.85;;;0.90;;
67819;SDS011;54618;52.018;5.576;2023-02-02T09:35:36;2.47;;;1.00;;
67819;SDS011;54618;52.018;5.576;2023-02-02T09:38:02;2.47;;;0.90;;
67819;SDS011;54618;52.018;5.576;2023-02-02T09:40:27;3.63;;;1.00;;
67819;SDS011;54618;52.018;5.576;2023-02-02T09:43:05;2.70;;;0.85;;
67819;SDS011;54618;52.018;5.576;2023-02-02T09:48:21;4.22;;;1.15;;
67819;SDS011;54618;52.018;5.576;2023-02-02T09:50:53;2.90;;;0.90;;
67819;SDS011;54618;52.018;5.576;2023-02-02T09:53:26;6.32;;;1.00;;
67819;SDS011;54618;52.018;5.576;2023-02-02T09:56:11;3.83;;;0.93;;
67819;SDS011;54618;52.018;5.576;2023-02-02T09:58:49;4.47;;;1.00;;
67819;SDS011;54618;52.018;5.576;2023-02-02T10:01:29;3.38;;;1.27;;
67819;SDS011;54618;52.018;5.576;2023-02-02T10:03:59;2.90;;;0.98;;
67819;SDS011;54618;52.018;5.576;2023-02-02T10:06:47;4.80;;;0.90;;
67819;SDS011;54618;52.018;5.576;2023-02-02T10:09:29;2.75;;;0.73;;
67819;SDS011;54618;52.018;5.576;2023-02-02T10:17:51;3.00;;;1.00;;
67819;SDS011;54618;52.018;5.576;2023-02-02T10:20:47;1.90;;;0.60;;
67819;SDS011;54618;52.018;5.576;2023-02-02T10:23:37;3.70;;;0.70;;
67819;SDS011;54618;52.018;5.576;2023-02-02T10:26:04;3.20;;;0.80;;
67819;SDS011;54618;52.018;5.576;2023-02-02T10:31:29;2.50;;;0.70;;
67819;SDS011;54618;52.018;5.576;2023-02-02T10:37:24;3.28;;;1.10;;
67819;SDS011;54618;52.018;5.576;2023-02-02T10:42:36;3.95;;;1.00;;
67819;SDS011;54618;52.018;5.576;2023-02-02T10:45:43;4.53;;;0.90;;
67819;SDS011;54618;52.018;5.576;2023-02-02T10:48:12;2.05;;;0.80;;
67819;SDS011;54618;52.018;5.576;2023-02-02T10:50:43;4.18;;;0.95;;
67819;SDS011;54618;52.018;5.576;2023-02-02T10:53:13;3.90;;;0.90;;
67819;SDS011;54618;52.018;5.576;2023-02-02T10:55:41;2.88;;;1.05;;
67819;SDS011;54618;52.018;5.576;2023-02-02T10:58:22;5.05;;;1.08;;
67819;SDS011;54618;52.018;5.576;2023-02-02T11:00:54;2.95;;;0.90;;
67819;SDS011;54618;52.018;5.576;2023-02-02T11:03:22;3.50;;;0.80;;
67819;SDS011;54618;52.018;5.576;2023-02-02T11:05:51;3.70;;;1.08;;
67819;SDS011;54618;52.018;5.576;2023-02-02T11:08:42;3.08;;;0.90;;
67819;SDS011;54618;52.018;5.576;2023-02-02T11:16:32;3.47;;;0.88;;
67819;SDS011;54618;52.018;5.576;2023-02-02T11:18:58;1.77;;;0.80;;
67819;SDS011;54618;52.018;5.576;2023-02-02T11:21:27;4.40;;;0.93;;
67819;SDS011;54618;52.018;5.576;2023-02-02T11:24:00;2.50;;;0.70;;
67819;SDS011;54618;52.018;5.576;2023-02-02T11:26:40;2.35;;;0.70;;
67819;SDS011;54618;52.018;5.576;2023-02-02T11:29:13;4.00;;;0.88;;
67819;SDS011;54618;52.018;5.576;2023-02-02T11:31:44;3.28;;;0.98;;
67819;SDS011;54618;52.018;5.576;2023-02-02T11:34:24;3.25;;;0.98;;
67819;SDS011;54618;52.018;5.576;2023-02-02T11:37:12;2.92;;;0.82;;
67819;SDS011;54618;52.018;5.576;2023-02-02T11:39:39;3.15;;;1.02;;
67819;SDS011;54618;52.018;5.576;2023-02-02T11:42:07;2.92;;;0.93;;
67819;SDS011;54618;52.018;5.576;2023-02-02T11:44:45;3.10;;;0.82;;
67819;SDS011;54618;52.018;5.576;2023-02-02T11:47:34;3.03;;;0.80;;
67819;SDS011;54618;52.018;5.576;2023-02-02T11:50:00;2.80;;;0.85;;
67819;SDS011;54618;52.018;5.576;2023-02-02T11:52:27;2.55;;;0.70;;
67819;SDS011;54618;52.018;5.576;2023-02-02T11:54:58;2.88;;;0.80;;
67819;SDS011;54618;52.018;5.576;2023-02-02T11:57:27;3.33;;;0.80;;
67819;SDS011;54618;52.018;5.576;2023-02-02T12:02:47;3.15;;;1.00;;
67819;SDS011;54618;52.018;5.576;2023-02-02T12:05:31;2.72;;;0.93;;
67819;SDS011;54618;52.018;5.576;2023-02-02T12:07:58;2.70;;;0.93;;
67819;SDS011;54618;52.018;5.576;2023-02-02T12:10:26;2.45;;;0.70;;
67819;SDS011;54618;52.018;5.576;2023-02-02T12:15:34;2.05;;;0.80;;
67819;SDS011;54618;52.018;5.576;2023-02-02T12:21:00;3.30;;;0.80;;
67819;SDS011;54618;52.018;5.576;2023-02-02T12:26:30;2.15;;;0.68;;
67819;SDS011;54618;52.018;5.576;2023-02-02T12:34:41;2.60;;;0.77;;
67819;SDS011;54618;52.018;5.576;2023-02-02T12:37:19;3.22;;;0.82;;
67819;SDS011;54618;52.018;5.576;2023-02-02T12:48:54;2.55;;;0.80;;
67819;SDS011;54618;52.018;5.576;2023-02-02T12:51:43;1.65;;;0.60;;
67819;SDS011;54618;52.018;5.576;2023-02-02T12:54:53;1.77;;;0.70;;
67819;SDS011;54618;52.018;5.576;2023-02-02T13:03:30;3.17;;;0.85;;
67819;SDS011;54618;52.018;5.576;2023-02-02T13:06:40;2.90;;;0.88;;
67819;SDS011;54618;52.018;5.576;2023-02-02T13:11:58;2.08;;;0.70;;
67819;SDS011;54618;52.018;5.576;2023-02-02T13:17:18;3.95;;;0.90;;
67819;SDS011;54618;52.018;5.576;2023-02-02T13:20:04;3.67;;;1.05;;
67819;SDS011;54618;52.018;5.576;2023-02-02T13:22:36;2.70;;;1.02;;
67819;SDS011;54618;52.018;5.576;2023-02-02T13:25:13;1.92;;;0.60;;
67819;SDS011;54618;52.018;5.576;2023-02-02T13:27:45;2.65;;;0.93;;
67819;SDS011;54618;52.018;5.576;2023-02-02T13:32:48;3.58;;;0.77;;
67819;SDS011;54618;52.018;5.576;2023-02-02T13:35:37;3.03;;;0.82;;
67819;SDS011;54618;52.018;5.576;2023-02-02T13:38:12;3.13;;;0.95;;
67819;SDS011;54618;52.018;5.576;2023-02-02T13:40:41;2.33;;;0.80;;
67819;SDS011;54618;52.018;5.576;2023-02-02T13:43:14;3.67;;;0.90;;
67819;SDS011;54618;52.018;5.576;2023-02-02T13:46:13;2.88;;;0.70;;
67819;SDS011;54618;52.018;5.576;2023-02-02T13:49:05;4.10;;;0.85;;
67819;SDS011;54618;52.018;5.576;2023-02-02T13:52:01;2.13;;;0.80;;
67819;SDS011;54618;52.018;5.576;2023-02-02T14:00:15;2.13;;;0.82;;
67819;SDS011;54618;52.018;5.576;2023-02-02T14:02:53;2.05;;;0.70;;
67819;SDS011;54618;52.018;5.576;2023-02-02T14:08:01;2.90;;;0.68;;
67819;SDS011;54618;52.018;5.576;2023-02-02T14:11:03;1.60;;;0.70;;
67819;SDS011;54618;52.018;5.576;2023-02-02T14:13:35;4.00;;;0.80;;
67819;SDS011;54618;52.018;5.576;2023-02-02T14:18:57;2.78;;;0.80;;
67819;SDS011;54618;52.018;5.576;2023-02-02T14:26:46;1.92;;;0.68;;
67819;SDS011;54618;52.018;5.576;2023-02-02T14:34:28;1.80;;;0.60;;
67819;SDS011;54618;52.018;5.576;2023-02-02T14:45:40;10.00;;;2.53;;
67819;SDS011;54618;52.018;5.576;2023-02-02T14:50:43;10.63;;;3.22;;
67819;SDS011;54618;52.018;5.576;2023-02-02T14:53:36;11.38;;;2.88;;
67819;SDS011;54618;52.018;5.576;2023-02-02T14:56:08;9.13;;;3.13;;
67819;SDS011;54618;52.018;5.576;2023-02-02T14:58:39;11.63;;;2.83;;
67819;SDS011;54618;52.018;5.576;2023-02-02T15:04:20;9.55;;;2.60;;
67819;SDS011;54618;52.018;5.576;2023-02-02T15:06:44;10.02;;;2.58;;
67819;SDS011;54618;52.018;5.576;2023-02-02T15:22:56;6.50;;;2.10;;
67819;SDS011;54618;52.018;5.576;2023-02-02T15:25:44;7.93;;;2.33;;
67819;SDS011;54618;52.018;5.576;2023-02-02T15:28:24;7.93;;;2.35;;
67819;SDS011;54618;52.018;5.576;2023-02-02T15:33:52;7.72;;;1.92;;
67819;SDS011;54618;52.018;5.576;2023-02-02T15:36:23;5.45;;;1.83;;
67819;SDS011;54618;52.018;5.576;2023-02-02T15:38:52;5.43;;;1.95;;
67819;SDS011;54618;52.018;5.576;2023-02-02T15:41:27;10.07;;;2.00;;
67819;SDS011;54618;52.018;5.576;2023-02-02T15:43:57;7.78;;;2.00;;
67819;SDS011;54618;52.018;5.576;2023-02-02T15:46:23;8.68;;;2.00;;
67819;SDS011;54618;52.018;5.576;2023-02-02T15:51:44;5.53;;;1.92;;
67819;SDS011;54618;52.018;5.576;2023-02-02T15:54:24;5.75;;;1.88;;
67819;SDS011;54618;52.018;5.576;2023-02-02T15:56:51;6.97;;;2.20;;
67819;SDS011;54618;52.018;5.576;2023-02-02T15:59:20;8.38;;;1.55;;
67819;SDS011;54618;52.018;5.576;2023-02-02T16:02:03;5.82;;;1.90;;
67819;SDS011;54618;52.018;5.576;2023-02-02T16:04:34;4.43;;;1.73;;
67819;SDS011;54618;52.018;5.576;2023-02-02T16:07:05;4.72;;;1.40;;
67819;SDS011;54618;52.018;5.576;2023-02-02T16:09:36;5.10;;;1.42;;
67819;SDS011;54618;52.018;5.576;2023-02-02T16:12:03;9.40;;;4.45;;
67819;SDS011;54618;52.018;5.576;2023-02-02T16:14:30;11.18;;;3.90;;
67819;SDS011;54618;52.018;5.576;2023-02-02T16:17:12;435.97;;;167.33;;
67819;SDS011;54618;52.018;5.576;2023-02-02T16:19:46;565.05;;;267.25;;
67819;SDS011;54618;52.018;5.576;2023-02-02T16:22:14;541.55;;;260.40;;
67819;SDS011;54618;52.018;5.576;2023-02-02T16:24:46;503.15;;;239.02;;
67819;SDS011;54618;52.018;5.576;2023-02-02T16:27:17;521.53;;;259.88;;
67819;SDS011;54618;52.018;5.576;2023-02-02T16:29:46;505.77;;;247.52;;
67819;SDS011;54618;52.018;5.576;2023-02-02T16:32:46;414.02;;;185.88;;
67819;SDS011;54618;52.018;5.576;2023-02-02T16:35:22;458.38;;;214.85;;
67819;SDS011;54618;52.018;5.576;2023-02-02T16:40:47;422.15;;;195.30;;
67819;SDS011;54618;52.018;5.576;2023-02-02T16:43:17;421.38;;;188.10;;
67819;SDS011;54618;52.018;5.576;2023-02-02T16:45:45;412.33;;;186.10;;
67819;SDS011;54618;52.018;5.576;2023-02-02T16:48:23;410.25;;;181.00;;
67819;SDS011;54618;52.018;5.576;2023-02-02T16:51:02;401.20;;;176.23;;
67819;SDS011;54618;52.018;5.576;2023-02-02T16:53:33;378.63;;;166.65;;
67819;SDS011;54618;52.018;5.576;2023-02-02T16:56:00;373.85;;;162.68;;
67819;SDS011;54618;52.018;5.576;2023-02-02T16:58:29;364.95;;;156.88;;
67819;SDS011;54618;52.018;5.576;2023-02-02T17:01:02;346.98;;;148.30;;
67819;SDS011;54618;52.018;5.576;2023-02-02T17:03:32;352.02;;;148.88;;
67819;SDS011;54618;52.018;5.576;2023-02-02T17:06:03;349.15;;;145.02;;
67819;SDS011;54618;52.018;5.576;2023-02-02T17:11:01;292.75;;;127.55;;
67819;SDS011;54618;52.018;5.576;2023-02-02T17:13:35;284.05;;;121.63;;
67819;SDS011;54618;52.018;5.576;2023-02-02T17:16:03;253.50;;;108.82;;
67819;SDS011;54618;52.018;5.576;2023-02-02T17:18:29;250.35;;;105.50;;
67819;SDS011;54618;52.018;5.576;2023-02-02T17:20:55;227.25;;;99.07;;
67819;SDS011;54618;52.018;5.576;2023-02-02T17:23:25;217.65;;;94.32;;
67819;SDS011;54618;52.018;5.576;2023-02-02T17:25:52;213.18;;;90.20;;
67819;SDS011;54618;52.018;5.576;2023-02-02T17:28:18;208.35;;;86.20;;
67819;SDS011;54618;52.018;5.576;2023-02-02T17:30:47;192.30;;;79.55;;
67819;SDS011;54618;52.018;5.576;2023-02-02T17:33:18;168.75;;;75.20;;
67819;SDS011;54618;52.018;5.576;2023-02-02T17:35:44;167.57;;;71.88;;